Time;durP1;ratioP1;P1;durP2;ratioP2;P2;SDS_P1;SDS_P2;PMS_P1;PMS_P2;Temp;Humidity;BMP_temperature;BMP_pressure;BME280_temperature;BME280_humidity;BME280_pressure;Samples;Min_cycle;Max_cycle;Signal;HPM_P1;HPM_P2
2022/09/02 00:01:01;;;;;;;2.07;1.30;;;;;;;11.38;100.00;99604.16;6141163;23;20194;31
2022/09/02 01:29:05;;;;;;;1.30;1.00;;;;;;;10.25;100.00;99570.72;6151048;23;21193;31
2022/09/02 01:44:14;;;;;;;2.90;1.03;;;;;;;10.08;100.00;99564.22;4991085;28;20259;-85
2022/09/02 01:47:09;;;;;;;1.20;1.10;;;;;;;10.09;100.00;99561.34;4981738;28;20231;-84
2022/09/02 01:49:36;;;;;;;1.17;1.00;;;;;;;10.05;100.00;99565.50;4979651;28;20235;-83
2022/09/02 01:53:07;;;;;;;1.40;1.10;;;;;;;10.02;100.00;99559.75;4956727;28;20246;-83
2022/09/02 01:56:06;;;;;;;1.33;1.20;;;;;;;9.96;100.00;99563.28;4991830;28;20240;-83
2022/09/02 01:58:37;;;;;;;1.43;1.23;;;;;;;9.97;100.00;99570.28;4980764;28;20224;-84
2022/09/02 02:01:04;;;;;;;2.87;1.23;;;;;;;9.94;100.00;99563.50;4992299;28;20228;-87
2022/09/02 02:03:35;;;;;;;2.00;1.20;;;;;;;9.97;100.00;99570.28;4984311;28;20220;-84
2022/09/02 02:06:10;;;;;;;2.10;1.37;;;;;;;9.93;100.00;99563.75;4967244;28;20212;-81
2022/09/02 02:08:44;;;;;;;3.13;1.20;;;;;;;9.88;100.00;99568.91;4979436;28;20203;-83
2022/09/02 02:11:19;;;;;;;2.13;1.30;;;;;;;9.86;100.00;99558.41;4975603;29;20261;-85
2022/09/02 02:13:51;;;;;;;1.73;1.20;;;;;;;9.81;100.00;99555.56;4972233;28;20253;-85
2022/09/02 02:16:20;;;;;;;1.13;1.00;;;;;;;9.83;100.00;99556.19;4992785;28;20228;-84
2022/09/02 03:30:15;;;;;;;2.10;1.30;;;;;;;9.11;100.00;99545.88;5523964;23;20257;-83
2022/09/02 03:36:43;;;;;;;1.53;1.40;;;;;;;9.09;100.00;99547.97;5052937;23;20223;-83
2022/09/02 03:48:22;;;;;;;1.97;1.37;;;;;;;9.00;100.00;99547.38;5898617;23;20246;-83
2022/09/02 03:50:50;;;;;;;1.60;1.50;;;;;;;9.00;100.00;99557.25;5014700;28;20219;-82
2022/09/02 03:53:19;;;;;;;1.40;1.30;;;;;;;8.97;100.00;99550.44;5005800;28;20234;-82
2022/09/02 03:55:53;;;;;;;1.80;1.50;;;;;;;8.93;100.00;99551.91;5021436;28;20225;-83
2022/09/02 03:58:24;;;;;;;2.23;2.03;;;;;;;8.93;100.00;99557.25;4998385;28;20239;-83
2022/09/02 04:00:53;;;;;;;2.47;1.30;;;;;;;8.95;100.00;99562.41;4997472;28;20711;-84
2022/09/02 04:03:22;;;;;;;1.93;1.60;;;;;;;8.94;100.00;99560.75;4998032;28;20239;-83
2022/09/02 04:05:51;;;;;;;2.07;1.50;;;;;;;8.90;100.00;99555.00;4978142;28;20717;-82
2022/09/02 04:08:22;;;;;;;1.67;1.40;;;;;;;8.87;100.00;99555.41;4992193;28;20225;-82
2022/09/02 04:10:58;;;;;;;1.67;1.50;;;;;;;8.86;100.00;99555.66;5004350;28;20314;-83
2022/09/02 04:13:25;;;;;;;2.73;1.37;;;;;;;8.81;100.00;99557.09;5007341;28;20317;-84
2022/09/02 04:15:52;;;;;;;2.27;1.60;;;;;;;8.82;100.00;99560.56;5019143;28;20230;-83
2022/09/02 04:18:25;;;;;;;2.50;1.30;;;;;;;8.83;100.00;99562.22;5021541;28;20311;-82
2022/09/02 04:20:58;;;;;;;2.33;1.50;;;;;;;8.87;100.00;99562.59;5022501;28;20235;-83
2022/09/02 04:23:27;;;;;;;1.80;1.50;;;;;;;8.86;100.00;99563.66;4992948;28;20711;-84
2022/09/02 04:25:54;;;;;;;2.33;1.50;;;;;;;8.83;100.00;99559.53;4978406;28;20216;-83
2022/09/02 04:28:22;;;;;;;1.70;1.60;;;;;;;8.87;100.00;99568.78;5000361;28;20239;-82
2022/09/02 04:31:08;;;;;;;2.30;1.93;;;;;;;8.87;100.00;99566.09;4986896;28;20331;-83
2022/09/02 04:33:38;;;;;;;2.00;1.80;;;;;;;8.88;100.00;99564.25;5002602;28;20292;-82
2022/09/02 04:36:11;;;;;;;2.33;1.67;;;;;;;8.93;100.00;99567.13;4998866;28;20235;-83
2022/09/02 04:38:42;;;;;;;2.77;1.73;;;;;;;8.92;100.00;99571.63;4979649;28;20263;-84
2022/09/02 04:41:13;;;;;;;2.20;1.60;;;;;;;9.00;100.00;99573.28;4974341;28;20219;-83
2022/09/02 04:43:41;;;;;;;3.30;1.70;;;;;;;8.99;100.00;99569.78;4973518;28;20201;-83
2022/09/02 04:46:11;;;;;;;1.97;1.47;;;;;;;9.06;100.00;99575.09;4981371;28;20224;-82
2022/09/02 04:48:42;;;;;;;3.37;1.90;;;;;;;9.10;100.00;99576.28;4974627;28;20232;-85
2022/09/02 04:51:21;;;;;;;1.73;1.63;;;;;;;9.18;100.00;99578.75;4965156;28;20219;-85
2022/09/02 04:53:55;;;;;;;2.97;1.70;;;;;;;9.22;100.00;99586.16;4961424;29;20269;-85
2022/09/02 04:56:39;;;;;;;2.83;1.80;;;;;;;9.24;100.00;99578.72;4944735;29;20264;-86
2022/09/02 04:59:07;;;;;;;1.70;1.60;;;;;;;9.32;100.00;99583.03;4971622;28;20227;-86
2022/09/02 05:01:37;;;;;;;4.00;1.63;;;;;;;9.42;100.00;99582.56;4984375;28;20196;-87
2022/09/02 05:31:05;;;;;;;6.10;2.37;;;;;;;11.39;100.00;99580.84;5614228;23;20259;-84
2022/09/02 05:33:37;;;;;;;1.83;1.73;;;;;;;11.61;100.00;99578.50;4990641;28;20225;-83
2022/09/02 05:37:23;;;;;;;2.40;1.60;;;;;;;11.91;100.00;99573.97;4969367;28;20220;-83
2022/09/02 05:39:53;;;;;;;2.77;1.50;;;;;;;12.14;100.00;99578.56;4962243;29;20260;-83
2022/09/02 05:42:42;;;;;;;3.33;1.70;;;;;;;12.42;100.00;99584.09;4966324;28;20233;-83
2022/09/02 05:45:11;;;;;;;1.93;1.37;;;;;;;12.65;100.00;99580.59;4965097;28;20201;-83
2022/09/02 05:47:42;;;;;;;3.13;1.70;;;;;;;12.84;100.00;99565.16;4976733;28;20194;-83
2022/09/02 05:50:09;;;;;;;2.57;1.63;;;;;;;13.07;100.00;99567.81;4967432;28;20202;-83
2022/09/02 05:52:57;;;;;;;2.70;1.60;;;;;;;13.26;100.00;99571.19;4980316;28;20676;-84
2022/09/02 05:55:24;;;;;;;1.97;1.40;;;;;;;13.47;100.00;99573.25;4980578;28;20196;-83
2022/09/02 06:07:00;;;;;;;4.10;1.50;;;;;;;14.27;100.00;99567.66;6013212;23;20417;-83
2022/09/02 06:09:27;;;;;;;2.30;1.80;;;;;;;14.45;100.00;99570.16;5462991;23;20227;-82
2022/09/02 06:11:54;;;;;;;2.73;1.93;;;;;;;14.65;100.00;99565.03;4991088;28;20231;-81
2022/09/02 06:14:26;;;;;;;4.23;1.83;;;;;;;14.80;100.00;99569.84;4955480;28;20226;-83
2022/09/02 06:16:56;;;;;;;3.20;1.40;;;;;;;14.92;100.00;99571.38;4984394;28;20229;-83
2022/09/02 06:19:31;;;;;;;2.13;1.60;;;;;;;14.98;100.00;99566.84;4963952;28;20226;-83
2022/09/02 06:22:01;;;;;;;1.97;1.67;;;;;;;15.14;100.00;99566.00;4928878;28;20274;-84
2022/09/02 06:27:33;;;;;;;4.60;1.73;;;;;;;15.03;100.00;99571.50;5604855;23;20230;-83
2022/09/02 06:30:00;;;;;;;3.53;1.67;;;;;;;15.11;100.00;99561.13;4966915;28;20225;-82
2022/09/02 06:32:27;;;;;;;1.47;1.37;;;;;;;15.31;98.54;99564.03;4960011;28;20695;-84
2022/09/02 06:35:00;;;;;;;3.20;1.60;;;;;;;15.39;99.67;99554.72;4948775;28;20235;-85
2022/09/02 06:37:30;;;;;;;3.60;1.60;;;;;;;15.71;97.18;99557.50;4959619;28;20702;-85
2022/09/02 06:39:57;;;;;;;2.13;1.93;;;;;;;15.65;95.09;99555.81;4949733;28;20223;-87
2022/09/02 06:42:26;;;;;;;2.43;1.50;;;;;;;15.85;87.73;99543.34;4949589;28;20258;-86
2022/09/02 06:45:18;;;;;;;1.97;1.43;;;;;;;15.98;84.12;99558.31;4990159;23;20258;-87
2022/09/02 06:47:46;;;;;;;2.47;1.57;;;;;;;16.11;76.93;99548.97;4927659;29;20233;-86
2022/09/02 06:50:14;;;;;;;2.70;1.47;;;;;;;16.23;73.99;99550.44;4931353;29;20239;-87
2022/09/02 07:01:40;;;;;;;2.60;1.50;;;;;;;16.06;76.86;99565.13;5730493;23;20240;-81
2022/09/02 07:07:11;;;;;;;3.67;1.50;;;;;;;16.62;70.98;99556.41;4979563;23;20230;-85
2022/09/02 07:09:51;;;;;;;1.87;1.40;;;;;;;16.82;69.63;99557.63;4948902;28;20228;-87
2022/09/02 07:12:18;;;;;;;2.23;1.13;;;;;;;16.98;68.48;99556.63;4968196;28;20745;-86
2022/09/02 07:14:53;;;;;;;4.20;1.57;;;;;;;16.93;67.30;99557.41;4952223;28;20235;-87
2022/09/02 07:17:25;;;;;;;1.57;1.27;;;;;;;17.18;66.62;99560.25;4945555;28;20240;-87
2022/09/02 07:19:59;;;;;;;1.53;1.13;;;;;;;17.12;65.85;99558.56;4938914;28;20241;-86
2022/09/02 07:22:29;;;;;;;3.00;1.30;;;;;;;17.28;66.64;99564.88;4933076;28;20256;-86
2022/09/02 07:24:59;;;;;;;3.23;1.50;;;;;;;17.29;65.92;99571.13;4941005;28;20350;-86
2022/09/02 07:27:26;;;;;;;1.57;1.47;;;;;;;17.29;64.99;99565.69;4937888;28;20711;-87
2022/09/02 07:29:55;;;;;;;3.17;1.40;;;;;;;17.19;64.19;99563.75;4962273;28;20245;-88
2022/09/02 07:32:22;;;;;;;4.00;1.50;;;;;;;17.34;64.49;99560.31;4939727;28;20698;-88
2022/09/02 07:34:49;;;;;;;3.00;1.23;;;;;;;17.58;62.71;99566.91;4968653;28;20235;-85
2022/09/02 07:37:16;;;;;;;1.83;1.50;;;;;;;17.75;61.64;99564.78;4950263;28;20240;-87
2022/09/02 07:39:44;;;;;;;2.83;1.50;;;;;;;17.52;63.99;99567.94;4937406;28;20224;-87
2022/09/02 07:42:13;;;;;;;2.50;1.30;;;;;;;16.94;65.93;99564.44;4929559;28;20232;-88
2022/09/02 07:44:40;;;;;;;2.03;1.37;;;;;;;17.12;65.67;99563.19;4953342;28;20670;-87
2022/09/02 07:47:08;;;;;;;2.53;1.23;;;;;;;17.05;65.30;99565.31;4915194;28;20339;-88
2022/09/02 07:49:39;;;;;;;2.20;1.40;;;;;;;17.16;68.15;99561.59;4941625;28;20367;-87
2022/09/02 07:52:26;;;;;;;1.77;1.50;;;;;;;17.16;65.30;99565.13;4934125;28;20232;-87
2022/09/02 07:54:54;;;;;;;1.93;1.37;;;;;;;17.27;65.89;99557.84;4959727;28;20232;-88
2022/09/02 07:57:22;;;;;;;1.63;1.30;;;;;;;17.08;66.98;99559.38;4925305;28;20232;-88
2022/09/02 07:59:49;;;;;;;2.33;1.50;;;;;;;16.75;70.47;99562.47;4917313;28;20267;-85
2022/09/02 08:02:17;;;;;;;1.50;1.40;;;;;;;16.61;72.59;99554.78;4960127;28;20233;-87
2022/09/02 08:04:44;;;;;;;1.67;1.30;;;;;;;16.32;75.29;99568.88;4932806;28;20247;-85
2022/09/02 08:07:11;;;;;;;2.07;1.53;;;;;;;16.35;73.78;99557.53;4940679;28;20228;-87
2022/09/02 08:09:38;;;;;;;2.33;1.30;;;;;;;16.51;72.08;99557.41;4944598;28;20232;-86
2022/09/02 08:12:04;;;;;;;3.10;1.40;;;;;;;16.64;73.98;99553.47;4945813;28;20247;-86
2022/09/02 08:14:32;;;;;;;2.10;1.20;;;;;;;16.76;73.92;99554.06;4929098;28;20525;-85
2022/09/02 08:16:58;;;;;;;3.20;1.50;;;;;;;16.91;70.73;99553.34;4936247;28;20262;-84
2022/09/02 08:19:26;;;;;;;2.40;1.30;;;;;;;16.89;69.24;99558.22;4953240;28;20237;-85
2022/09/02 08:21:54;;;;;;;2.63;1.70;;;;;;;16.79;68.44;99555.44;4951376;28;20302;-87
2022/09/02 08:24:20;;;;;;;3.70;1.37;;;;;;;17.21;67.23;99553.50;4949994;28;20327;-85
2022/09/02 08:26:48;;;;;;;2.50;1.40;;;;;;;17.59;66.17;99560.41;4937226;28;20234;-86
2022/09/02 08:29:14;;;;;;;2.23;1.40;;;;;;;18.09;64.05;99556.97;4940813;29;20240;-86
2022/09/02 08:31:41;;;;;;;3.73;1.70;;;;;;;17.86;65.85;99562.91;4962942;28;20233;-87
2022/09/02 08:34:08;;;;;;;2.27;1.60;;;;;;;17.82;65.71;99553.72;4952879;28;20227;-85
2022/09/02 08:36:35;;;;;;;2.30;1.40;;;;;;;18.33;63.70;99557.25;4964211;28;20286;-85
2022/09/02 08:39:03;;;;;;;2.87;1.50;;;;;;;17.93;60.84;99558.84;4922271;28;20812;-86
2022/09/02 08:41:36;;;;;;;2.03;1.40;;;;;;;18.90;58.10;99552.31;4944247;28;20268;-86
2022/09/02 08:44:03;;;;;;;2.90;1.20;;;;;;;19.47;55.94;99552.94;4954255;28;20240;-85
2022/09/02 08:46:33;;;;;;;1.73;1.53;;;;;;;18.90;56.47;99548.78;4976244;28;20240;-85
2022/09/02 08:49:07;;;;;;;2.83;1.63;;;;;;;19.11;56.17;99555.78;4937758;28;20688;-85
2022/09/02 08:51:47;;;;;;;2.80;1.60;;;;;;;19.81;54.71;99555.72;4953615;28;20243;-84
2022/09/02 08:54:47;;;;;;;2.93;1.57;;;;;;;19.61;54.18;99553.94;4935953;28;20328;-86
2022/09/02 08:57:14;;;;;;;4.00;1.70;;;;;;;20.02;53.13;99546.34;4944801;28;20241;-85
2022/09/02 08:59:42;;;;;;;2.03;1.57;;;;;;;19.44;54.00;99545.34;4948766;28;20235;-87
2022/09/02 09:02:12;;;;;;;3.10;1.57;;;;;;;19.43;54.47;99544.50;4929771;28;20280;-85
2022/09/02 09:05:15;;;;;;;1.77;1.60;;;;;;;19.56;53.52;99546.63;4952566;28;20229;-85
2022/09/02 09:07:58;;;;;;;3.33;1.80;;;;;;;20.28;53.30;99541.53;4950870;28;20244;-85
2022/09/02 09:10:39;;;;;;;3.10;1.70;;;;;;;20.17;51.83;99540.78;4968383;28;20666;-86
2022/09/02 09:13:37;;;;;;;2.17;1.60;;;;;;;20.05;52.31;99548.50;4951713;28;20256;-85
2022/09/02 09:16:27;;;;;;;3.20;1.70;;;;;;;21.04;50.46;99538.88;4943220;28;20320;-85
2022/09/02 09:19:09;;;;;;;3.13;1.40;;;;;;;21.02;50.68;99541.88;4938577;28;20642;-85
2022/09/02 09:21:39;;;;;;;2.50;1.73;;;;;;;20.94;50.47;99545.25;4965051;28;20241;-86
2022/09/02 09:24:24;;;;;;;3.70;1.40;;;;;;;21.82;47.54;99533.78;4957023;28;20923;-86
2022/09/02 09:26:53;;;;;;;2.43;1.50;;;;;;;21.84;46.98;99539.72;4974257;28;20227;-85
2022/09/02 09:29:20;;;;;;;3.90;1.70;;;;;;;20.91;49.90;99534.91;4951798;28;20237;-85
2022/09/02 09:31:53;;;;;;;5.00;1.80;;;;;;;21.20;49.58;99524.00;4968325;28;20252;-86
2022/09/02 09:34:20;;;;;;;2.17;1.50;;;;;;;20.88;48.98;99519.16;4961859;28;20251;-84
2022/09/02 09:36:50;;;;;;;2.50;1.20;;;;;;;21.00;49.07;99526.91;4974110;28;20321;-83
2022/09/02 09:39:28;;;;;;;2.90;1.50;;;;;;;21.40;47.98;99525.66;4965683;28;20366;-84
2022/09/02 09:42:03;;;;;;;2.83;1.70;;;;;;;21.32;47.61;99518.13;4941387;28;20246;-85
2022/09/02 09:44:44;;;;;;;4.70;1.97;;;;;;;19.98;49.35;99520.81;4932169;28;20254;-85
2022/09/02 09:47:19;;;;;;;2.83;1.60;;;;;;;20.76;47.94;99516.06;4948932;28;20327;-86
2022/09/02 09:49:47;;;;;;;2.23;1.40;;;;;;;20.61;49.32;99518.94;4922041;29;20235;-86
2022/09/02 09:52:24;;;;;;;1.77;1.23;;;;;;;21.43;48.35;99517.69;4942326;28;20718;-84
2022/09/02 09:55:27;;;;;;;1.40;1.20;;;;;;;21.29;44.76;99513.25;4946207;28;20233;-84
2022/09/02 09:58:06;;;;;;;1.83;1.27;;;;;;;21.86;43.10;99503.97;4898180;29;20241;-85
2022/09/02 10:00:33;;;;;;;2.37;1.30;;;;;;;20.89;45.94;99506.38;4944959;28;20236;-85
2022/09/02 10:03:04;;;;;;;2.90;1.30;;;;;;;20.21;46.71;99510.00;4934778;28;20656;-85
2022/09/02 10:05:38;;;;;;;1.73;1.20;;;;;;;20.25;45.28;99504.78;4955457;28;20241;-84
2022/09/02 10:08:19;;;;;;;1.37;1.10;;;;;;;20.75;45.09;99500.00;4950603;28;20292;-84
2022/09/02 10:11:01;;;;;;;3.60;1.10;;;;;;;21.38;45.12;99490.50;4930993;28;20232;-85
2022/09/02 10:13:34;;;;;;;1.93;1.10;;;;;;;20.47;45.39;99494.31;4937357;28;20236;-85
2022/09/02 10:16:28;;;;;;;1.63;1.07;;;;;;;20.98;45.60;99494.56;4929947;28;20250;-82
2022/09/02 10:19:05;;;;;;;4.97;1.30;;;;;;;21.08;45.08;99490.88;4944628;29;20272;-84
2022/09/02 10:21:56;;;;;;;3.13;1.30;;;;;;;20.94;47.26;99493.50;4966028;28;20235;-84
2022/09/02 10:24:51;;;;;;;2.37;1.40;;;;;;;21.18;46.23;99485.34;4952938;28;20230;-85
2022/09/02 10:27:40;;;;;;;2.00;1.13;;;;;;;21.12;46.03;99486.47;4967413;28;20747;-84
2022/09/02 10:30:19;;;;;;;2.00;1.30;;;;;;;20.92;46.66;99484.81;4930597;28;20246;-84
2022/09/02 10:33:00;;;;;;;2.00;1.00;;;;;;;20.81;46.37;99479.78;4949413;28;20722;-84
2022/09/02 10:35:43;;;;;;;2.77;1.10;;;;;;;21.27;43.19;99472.69;4961469;28;20288;-83
2022/09/02 10:38:28;;;;;;;3.47;1.13;;;;;;;21.62;43.28;99476.81;4943069;29;20351;-84
2022/09/02 10:41:06;;;;;;;2.37;0.93;;;;;;;21.83;42.40;99467.22;4960608;28;20714;-84
2022/09/02 10:43:42;;;;;;;1.80;1.20;;;;;;;22.03;42.42;99476.19;4948726;28;20230;-84
2022/09/02 10:46:16;;;;;;;2.30;1.07;;;;;;;22.02;42.96;99475.41;4950799;28;20246;-84
2022/09/02 10:49:01;;;;;;;3.10;1.50;;;;;;;22.11;42.81;99470.06;4949000;28;20271;-84
2022/09/02 10:51:45;;;;;;;2.00;1.27;;;;;;;22.25;42.50;99473.66;4948041;28;20259;-83
2022/09/02 10:54:36;;;;;;;2.70;1.10;;;;;;;22.45;42.30;99470.53;4966621;28;20331;-84
2022/09/02 10:57:11;;;;;;;1.77;1.23;;;;;;;22.63;41.85;99471.59;4950696;28;20239;-84
2022/09/02 10:59:43;;;;;;;2.60;1.27;;;;;;;22.28;42.57;99464.84;4916219;28;20244;-84
2022/09/02 11:02:19;;;;;;;1.98;1.30;;;;;;;22.15;43.33;99465.63;4944439;28;20232;-83
2022/09/02 11:04:48;;;;;;;2.22;1.48;;;;;;;22.27;42.23;99468.69;4933358;28;20243;-84
2022/09/02 11:07:27;;;;;;;1.50;1.15;;;;;;;22.70;42.06;99470.09;4956384;28;20949;-83
2022/09/02 11:10:06;;;;;;;4.07;1.23;;;;;;;22.39;41.86;99461.66;4920403;28;20255;-84
2022/09/02 11:12:37;;;;;;;2.72;1.20;;;;;;;22.72;42.02;99458.88;4934867;28;20247;-83
2022/09/02 11:15:15;;;;;;;2.40;1.20;;;;;;;23.01;41.35;99447.59;4966458;28;20376;-83
2022/09/02 11:17:48;;;;;;;3.15;1.50;;;;;;;23.00;41.45;99449.56;4947698;28;20211;-83
2022/09/02 11:20:43;;;;;;;1.80;1.50;;;;;;;22.80;40.97;99452.69;4946103;28;20873;-83
2022/09/02 11:23:17;;;;;;;3.30;1.60;;;;;;;23.18;42.20;99448.59;4917750;28;20386;-85
2022/09/02 11:25:48;;;;;;;1.77;1.33;;;;;;;23.41;40.58;99448.66;4971649;28;20239;-83
2022/09/02 11:28:20;;;;;;;1.38;1.20;;;;;;;23.56;40.28;99446.38;4950140;28;20244;-83
2022/09/02 11:31:09;;;;;;;2.78;1.40;;;;;;;;;;4953679;28;20273;-83
2022/09/02 11:33:42;;;;;;;2.58;1.38;;;;;;;23.61;39.23;99439.97;4965151;28;20232;-83
2022/09/02 11:36:09;;;;;;;3.65;1.48;;;;;;;22.88;41.02;99443.78;4956552;28;20721;-84
2022/09/02 11:38:44;;;;;;;3.35;1.50;;;;;;;23.07;40.44;99439.00;4939560;28;20255;-83
2022/09/02 11:41:14;;;;;;;1.95;1.23;;;;;;;23.00;41.27;99435.88;4950554;28;20318;-84
2022/09/02 11:44:14;;;;;;;1.90;1.38;;;;;;;22.72;40.89;99428.84;4959631;28;20659;-82
2022/09/02 11:47:06;;;;;;;1.95;1.30;;;;;;;23.04;40.53;99423.22;4939016;28;20248;-83
2022/09/02 11:50:00;;;;;;;1.88;1.60;;;;;;;22.90;41.51;99425.19;4957324;28;20240;-83
2022/09/02 11:52:58;;;;;;;1.60;1.33;;;;;;;22.49;41.42;99422.41;4935495;29;20291;-84
2022/09/02 11:55:37;;;;;;;2.25;1.30;;;;;;;22.38;40.95;99430.00;4963518;28;21086;-83
2022/09/02 11:58:04;;;;;;;3.50;1.10;;;;;;;22.69;40.65;99423.94;4951167;28;20228;-84
2022/09/02 12:00:57;;;;;;;3.85;1.50;;;;;;;22.82;40.43;99423.94;4969945;28;20797;-83
2022/09/02 12:03:30;;;;;;;2.45;1.42;;;;;;;22.82;39.90;99420.41;4963782;28;20271;-83
2022/09/02 12:06:18;;;;;;;1.67;1.55;;;;;;;22.70;39.96;99417.38;4924941;28;20824;-83
2022/09/02 12:08:47;;;;;;;1.77;1.30;;;;;;;23.08;39.61;99407.84;4937851;28;20231;-83
2022/09/02 12:11:36;;;;;;;1.90;1.30;;;;;;;22.70;40.46;99411.94;4965995;28;20232;-84
2022/09/02 12:14:05;;;;;;;2.08;1.25;;;;;;;22.43;40.61;99403.72;4967929;28;20243;-84
2022/09/02 12:16:36;;;;;;;3.58;1.23;;;;;;;22.95;40.04;99402.41;4935486;28;20650;-84
2022/09/02 12:19:06;;;;;;;2.03;1.30;;;;;;;23.44;40.46;99409.75;4967498;28;20788;-82
2022/09/02 12:21:34;;;;;;;1.83;1.30;;;;;;;23.06;40.15;99404.59;4955875;28;20232;-83
2022/09/02 12:24:05;;;;;;;2.95;1.40;;;;;;;23.32;39.31;99402.09;4950985;28;20310;-84
2022/09/02 12:26:35;;;;;;;1.85;1.50;;;;;;;22.92;39.70;99397.53;4948575;29;20264;-83
2022/09/02 12:29:30;;;;;;;2.50;1.25;;;;;;;23.18;38.98;99396.69;4966642;28;20222;-83
2022/09/02 12:31:57;;;;;;;1.85;1.25;;;;;;;22.81;39.23;99395.03;4954530;28;20228;-82
2022/09/02 12:34:24;;;;;;;1.88;1.17;;;;;;;23.27;39.27;99388.56;4968281;28;20707;-83
2022/09/02 12:36:55;;;;;;;2.35;0.90;;;;;;;23.62;38.46;99381.44;4973906;28;20243;-83
2022/09/02 12:39:21;;;;;;;1.92;1.15;;;;;;;23.74;37.18;99389.09;4949879;28;20319;-83
2022/09/02 12:42:20;;;;;;;3.85;1.27;;;;;;;23.84;36.40;99383.38;4963288;28;20228;-83
2022/09/02 12:45:21;;;;;;;1.77;1.20;;;;;;;23.08;37.36;99385.16;4967315;28;20594;-83
2022/09/02 12:48:08;;;;;;;1.48;1.10;;;;;;;23.44;37.89;99372.31;4955863;28;20232;-84
2022/09/02 12:50:53;;;;;;;2.30;0.90;;;;;;;23.42;38.68;99380.00;4947932;29;20225;-83
2022/09/02 12:53:22;;;;;;;1.58;1.20;;;;;;;23.82;37.54;99380.13;4952925;28;20224;-83
2022/09/02 12:55:56;;;;;;;1.38;1.20;;;;;;;24.21;36.41;99373.94;4971630;28;20235;-82
2022/09/02 12:58:23;;;;;;;2.65;1.10;;;;;;;24.45;37.39;99366.94;4971156;28;20224;-82
2022/09/02 13:01:05;;;;;;;1.70;1.30;;;;;;;23.47;38.14;99365.44;4946626;28;20240;-84
2022/09/02 13:03:48;;;;;;;1.30;1.13;;;;;;;23.33;37.24;99367.38;4953905;28;20258;-83
2022/09/02 13:06:30;;;;;;;1.65;1.10;;;;;;;23.61;37.20;99363.41;4949008;28;20236;-83
2022/09/02 13:09:25;;;;;;;2.53;1.13;;;;;;;23.68;35.41;99355.59;4951485;28;20239;-83
2022/09/02 13:11:51;;;;;;;1.30;1.20;;;;;;;23.87;35.30;99349.91;4974525;28;20243;-83
2022/09/02 13:14:53;;;;;;;1.40;1.10;;;;;;;23.97;35.05;99352.38;4970126;28;20235;-85
2022/09/02 13:17:28;;;;;;;2.83;0.90;;;;;;;24.22;35.49;99348.97;4934737;28;20228;-83
2022/09/02 13:20:25;;;;;;;1.75;1.05;;;;;;;23.85;34.62;99335.72;4940771;28;20231;-83
2022/09/02 13:23:12;;;;;;;1.90;0.98;;;;;;;23.85;34.57;99341.19;4970151;28;20235;-83
2022/09/02 13:26:20;;;;;;;1.92;1.08;;;;;;;24.16;34.76;99336.56;4930684;28;20233;-83
2022/09/02 13:29:29;;;;;;;1.35;1.17;;;;;;;24.11;35.19;99342.16;4922922;28;20760;-83
2022/09/02 13:32:10;;;;;;;1.02;0.93;;;;;;;23.47;35.79;99338.09;4965765;28;20282;-83
2022/09/02 13:34:44;;;;;;;1.20;1.00;;;;;;;22.94;36.72;99341.50;4940007;28;20245;-84
2022/09/02 13:37:34;;;;;;;2.30;1.10;;;;;;;23.42;36.22;99333.53;4963100;28;20675;-84
2022/09/02 13:40:25;;;;;;;2.38;1.02;;;;;;;23.44;35.74;99335.94;4966509;28;20248;-83
2022/09/02 13:42:54;;;;;;;1.95;1.00;;;;;;;23.56;35.84;99325.28;4927036;28;20334;-83
2022/09/02 13:45:25;;;;;;;1.33;1.05;;;;;;;24.09;35.81;99322.50;4937109;28;20249;-83
2022/09/02 13:47:55;;;;;;;1.20;1.05;;;;;;;24.54;34.94;99329.44;4960011;28;20641;-83
2022/09/02 13:50:24;;;;;;;1.58;0.98;;;;;;;24.75;33.84;99331.56;4945328;28;20234;-83
2022/09/02 13:53:13;;;;;;;3.10;1.15;;;;;;;24.08;34.25;99320.88;4946736;28;20248;-83
2022/09/02 13:56:01;;;;;;;2.15;1.20;;;;;;;24.08;35.17;99320.88;4952184;28;20243;-85
2022/09/02 13:58:28;;;;;;;2.35;1.00;;;;;;;24.54;35.02;99323.94;4961910;28;20979;-83
2022/09/02 14:00:56;;;;;;;1.73;1.00;;;;;;;24.63;34.36;99318.50;4964714;28;20220;-84
2022/09/02 14:03:31;;;;;;;1.23;0.93;;;;;;;24.78;34.58;99325.44;4931047;28;20251;-86
2022/09/02 14:05:59;;;;;;;2.33;1.02;;;;;;;24.96;34.12;99321.66;4936593;28;20244;-84
2022/09/02 14:08:27;;;;;;;1.23;1.10;;;;;;;24.09;35.06;99320.56;4947520;28;20366;-83
2022/09/02 14:10:55;;;;;;;1.98;1.00;;;;;;;24.26;34.62;99319.88;4963471;28;20223;-83
2022/09/02 14:13:22;;;;;;;1.15;0.93;;;;;;;24.73;33.73;99322.88;4961056;28;20243;-82
2022/09/02 14:15:49;;;;;;;1.85;1.00;;;;;;;25.04;33.81;99329.06;4946125;28;20223;-82
2022/09/02 14:18:17;;;;;;;1.75;0.95;;;;;;;25.33;32.46;99315.50;4955542;28;20237;-82
2022/09/02 14:21:22;;;;;;;1.38;0.95;;;;;;;25.50;32.50;99313.88;4934540;28;20699;-83
2022/09/02 14:23:50;;;;;;;1.98;1.05;;;;;;;25.46;32.75;99301.94;4884975;29;20258;-84
2022/09/02 14:26:36;;;;;;;0.90;0.90;;;;;;;25.51;32.21;99313.56;4936573;28;20698;-84
2022/09/02 14:29:07;;;;;;;1.98;0.88;;;;;;;25.69;32.47;99309.66;4951473;28;20727;-85
2022/09/02 14:31:34;;;;;;;2.83;1.00;;;;;;;25.32;32.70;99308.41;4948504;28;20271;-84
2022/09/02 14:34:00;;;;;;;1.45;1.05;;;;;;;25.03;33.39;99318.41;4963346;28;20239;-85
2022/09/02 14:36:35;;;;;;;2.45;1.05;;;;;;;24.30;34.59;99311.81;4939444;28;20272;-84
2022/09/02 14:39:16;;;;;;;1.23;1.00;;;;;;;24.09;34.34;99312.34;4932290;29;20297;-84
2022/09/02 14:41:45;;;;;;;1.60;0.88;;;;;;;24.23;35.12;99320.50;4940589;28;20319;-84
2022/09/02 14:44:35;;;;;;;2.58;1.00;;;;;;;24.39;35.37;99315.41;4928311;28;20219;-83
2022/09/02 14:47:06;;;;;;;1.00;1.00;;;;;;;24.49;33.88;99313.19;4959775;28;20228;-84
2022/09/02 14:49:38;;;;;;;2.85;1.20;;;;;;;24.38;33.44;99306.38;4944221;28;20268;-84
2022/09/02 14:52:16;;;;;;;1.20;1.10;;;;;;;24.64;32.97;99302.88;4942579;28;20224;-83
2022/09/02 14:54:48;;;;;;;1.10;0.90;;;;;;;24.79;32.81;99295.00;4952293;28;20297;-83
2022/09/02 14:57:43;;;;;;;1.98;1.00;;;;;;;24.82;33.37;99299.03;4952978;28;20237;-84
2022/09/02 15:00:13;;;;;;;1.98;1.10;;;;;;;24.96;32.83;99302.47;4932293;29;20248;-83
2022/09/02 15:02:42;;;;;;;1.98;1.00;;;;;;;25.12;33.14;99308.25;4942708;28;20248;-84
2022/09/02 15:05:13;;;;;;;3.20;0.85;;;;;;;25.20;33.03;99305.50;4935837;28;20248;-84
2022/09/02 15:07:40;;;;;;;1.13;1.02;;;;;;;25.22;32.29;99303.25;4939381;28;20267;-83
2022/09/02 15:10:08;;;;;;;1.02;0.90;;;;;;;25.21;32.55;99307.13;4950985;28;20785;-83
2022/09/02 15:12:44;;;;;;;3.67;1.15;;;;;;;24.90;33.67;99311.97;4966792;28;20331;-84
2022/09/02 15:15:10;;;;;;;1.02;0.93;;;;;;;24.96;34.22;99313.44;4968695;28;20230;-84
2022/09/02 15:17:37;;;;;;;1.85;1.00;;;;;;;25.16;33.58;99312.75;4958561;28;20227;-83
2022/09/02 15:20:06;;;;;;;1.35;1.00;;;;;;;24.87;33.84;99307.16;4927246;28;20289;-84
2022/09/02 15:22:37;;;;;;;1.38;0.80;;;;;;;24.78;33.57;99311.75;4949258;28;20235;-84
2022/09/02 15:25:06;;;;;;;1.10;0.90;;;;;;;24.85;33.66;99312.09;4931261;28;20333;-84
2022/09/02 15:27:34;;;;;;;1.45;1.00;;;;;;;24.93;34.07;99306.66;4929189;28;21501;-84
2022/09/02 15:30:00;;;;;;;1.55;0.90;;;;;;;24.69;33.51;99305.44;4923953;28;20314;-84
2022/09/02 15:32:27;;;;;;;1.02;0.93;;;;;;;24.79;34.00;99314.19;4923207;28;20231;-84
2022/09/02 15:34:54;;;;;;;1.10;0.98;;;;;;;24.79;34.01;99305.16;4948047;28;20247;-84
2022/09/02 15:37:20;;;;;;;1.88;0.90;;;;;;;24.79;33.23;99302.41;4961545;28;20235;-84
2022/09/02 15:39:49;;;;;;;1.23;1.00;;;;;;;24.68;33.26;99310.16;4947713;28;20319;-84
2022/09/02 15:42:17;;;;;;;1.58;1.00;;;;;;;24.61;33.43;99309.00;4966266;28;20229;-84
2022/09/02 15:44:44;;;;;;;1.10;1.00;;;;;;;24.60;33.85;99302.69;4960898;28;20247;-84
2022/09/02 15:47:11;;;;;;;1.27;0.98;;;;;;;24.47;33.25;99301.72;4934723;28;20238;-84
2022/09/02 15:49:37;;;;;;;2.53;0.85;;;;;;;24.40;33.63;99306.06;4949985;28;20247;-84
2022/09/02 15:52:04;;;;;;;3.50;1.00;;;;;;;24.27;33.87;99299.56;4950855;28;20318;-84
2022/09/02 15:54:31;;;;;;;1.77;1.10;;;;;;;24.25;33.63;99301.81;4929883;28;20242;-84
2022/09/02 15:56:58;;;;;;;1.60;0.82;;;;;;;24.25;34.37;99306.50;4962308;28;20450;-85
2022/09/02 15:59:25;;;;;;;2.65;0.93;;;;;;;23.89;34.18;99298.44;4964527;28;20228;-85
2022/09/02 16:01:54;;;;;;;1.30;0.90;;;;;;;23.42;34.83;99298.00;4949598;28;20305;-84
2022/09/02 16:04:21;;;;;;;1.02;0.85;;;;;;;23.12;35.65;99302.28;4931771;28;20291;-84